Time;durP1;ratioP1;P1;durP2;ratioP2;P2;SDS_P1;SDS_P2;PMS_P1;PMS_P2;Temp;Humidity;BMP_temperature;BMP_pressure;BME280_temperature;BME280_humidity;BME280_pressure;Samples;Min_cycle;Max_cycle;Signal;HPM_P1;HPM_P2
2023/02/03 00:01:15;;;;;;;;;;;;;;;6.58;60.05;101610.84;5080846;28;19912;-77
2023/02/03 00:04:05;;;;;;;;;;;;;;;6.48;61.33;101605.44;5083607;28;19916;-78
2023/02/03 00:06:57;;;;;;;;;;;;;;;6.53;61.52;101604.63;5075465;28;19916;-78
2023/02/03 00:09:48;;;;;;;;;;;;;;;6.54;61.58;101615.19;5081111;28;19916;-78
2023/02/03 00:12:40;;;;;;;;;;;;;;;6.56;61.56;101626.50;5075185;28;20392;-78
2023/02/03 00:15:30;;;;;;;;;;;;;;;6.51;62.35;101626.50;5083844;28;19912;-78
2023/02/03 00:18:22;;;;;;;;;;;;;;;6.73;62.36;101640.63;5089970;28;19912;-78
2023/02/03 00:21:13;;;;;;;;;;;;;;;6.86;61.78;101639.28;5087267;28;19912;-77
2023/02/03 00:24:05;;;;;;;;;;;;;;;6.80;61.59;101646.59;5086730;28;19912;-78
2023/02/03 00:26:57;;;;;;;;;;;;;;;6.76;62.39;101641.97;5088089;28;19916;-77
2023/02/03 00:29:50;;;;;;;;;;;;;;;6.91;62.36;101639.28;5087215;28;19912;-78
2023/02/03 00:32:42;;;;;;;;;;;;;;;6.71;62.38;101637.38;5080476;28;19920;-77
2023/02/03 00:35:31;;;;;;;;;;;;;;;6.61;62.06;101636.53;5088897;28;19912;-78
2023/02/03 00:38:23;;;;;;;;;;;;;;;6.66;61.61;101633.84;5085060;28;19912;-77
2023/02/03 00:41:15;;;;;;;;;;;;;;;6.60;62.12;101632.22;5087498;28;19912;-78
2023/02/03 00:44:05;;;;;;;;;;;;;;;6.68;61.91;101645.19;5088223;28;20284;-78
2023/02/03 00:46:57;;;;;;;;;;;;;;;6.49;61.27;101634.06;5083783;28;20313;-78
2023/02/03 00:49:49;;;;;;;;;;;;;;;6.63;61.86;101637.09;5082282;28;19912;-77
2023/02/03 00:52:41;;;;;;;;;;;;;;;6.58;61.42;101639.78;5076192;28;19916;-77
2023/02/03 00:55:33;;;;;;;;;;;;;;;6.34;61.33;101628.63;5072514;28;19920;-78
2023/02/03 00:58:25;;;;;;;;;;;;;;;6.37;61.02;101644.28;5079141;28;19938;-78
2023/02/03 01:01:17;;;;;;;;;;;;;;;6.09;61.01;101650.94;5077192;28;20312;-78
2023/02/03 01:04:09;;;;;;;;;;;;;;;6.17;61.99;101642.31;5082907;28;19912;-78
2023/02/03 01:06:58;;;;;;;;;;;;;;;6.26;61.34;101656.13;5076264;28;19912;-77
2023/02/03 01:09:50;;;;;;;;;;;;;;;6.15;62.42;101657.94;5073424;28;19912;-77
2023/02/03 01:12:42;;;;;;;;;;;;;;;6.27;62.67;101655.03;5073238;28;19916;-77
2023/02/03 01:15:32;;;;;;;;;;;;;;;6.16;62.44;101672.28;5064803;28;20392;-77
2023/02/03 01:18:23;;;;;;;;;;;;;;;5.99;61.51;101667.84;5071159;28;19912;-76
2023/02/03 01:21:15;;;;;;;;;;;;;;;5.79;61.06;101656.91;5077300;28;19913;-77
2023/02/03 01:24:07;;;;;;;;;;;;;;;5.68;60.96;101654.41;5074103;28;19916;-77
2023/02/03 01:27:01;;;;;;;;;;;;;;;5.76;62.81;101662.81;5075045;28;19912;-77
2023/02/03 01:29:53;;;;;;;;;;;;;;;5.73;60.46;101651.75;5075677;28;19913;-78
2023/02/03 01:32:45;;;;;;;;;;;;;;;5.26;62.17;101651.66;5072827;28;19920;-78
2023/02/03 01:35:37;;;;;;;;;;;;;;;4.66;64.93;101658.88;5070348;28;20316;-78
2023/02/03 01:38:29;;;;;;;;;;;;;;;5.00;64.03;101670.28;5066107;28;19924;-77
2023/02/03 01:41:22;;;;;;;;;;;;;;;5.40;62.94;101660.94;5071899;28;19912;-77
2023/02/03 01:44:30;;;;;;;;;;;;;;;4.88;62.42;101660.72;5076144;28;19913;-77
2023/02/03 01:47:29;;;;;;;;;;;;;;;4.68;64.17;101666.69;5075612;28;20388;-78
2023/02/03 01:50:22;;;;;;;;;;;;;;;4.53;64.24;101659.25;5075973;28;20296;-78
2023/02/03 01:53:14;;;;;;;;;;;;;;;4.14;66.05;101658.50;5075205;28;19916;-78
2023/02/03 01:56:06;;;;;;;;;;;;;;;4.12;66.09;101657.94;5070390;28;19920;-76
2023/02/03 01:58:59;;;;;;;;;;;;;;;3.84;68.74;101660.78;5073417;28;19912;-77
2023/02/03 02:01:52;;;;;;;;;;;;;;;3.52;70.95;101651.69;5069093;28;19913;-77
2023/02/03 02:04:56;;;;;;;;;;;;;;;3.74;71.58;101645.31;5070576;28;19913;-77
2023/02/03 02:07:48;;;;;;;;;;;;;;;4.06;69.50;101642.81;5065798;28;19912;-77
2023/02/03 02:10:40;;;;;;;;;;;;;;;3.52;70.38;101633.69;5077057;28;19912;-78
2023/02/03 02:13:33;;;;;;;;;;;;;;;3.83;70.76;101640.31;5075618;28;19912;-78
2023/02/03 02:16:44;;;;;;;;;;;;;;;4.26;68.62;101635.00;5073648;28;19916;-77
2023/02/03 02:19:56;;;;;;;;;;;;;;;4.03;69.78;101643.28;5068657;28;19912;-78
2023/02/03 02:23:04;;;;;;;;;;;;;;;3.91;70.40;101650.69;5073184;28;20384;-78
2023/02/03 02:26:03;;;;;;;;;;;;;;;3.38;71.47;101646.66;5076425;28;20365;-78
2023/02/03 02:29:13;;;;;;;;;;;;;;;3.04;72.97;101649.56;5073779;28;19912;-77
2023/02/03 02:32:09;;;;;;;;;;;;;;;3.83;71.22;101656.47;5057552;28;19916;-77
2023/02/03 02:35:22;;;;;;;;;;;;;;;3.25;72.38;101662.28;5072382;28;19912;-78
2023/02/03 02:38:28;;;;;;;;;;;;;;;3.82;71.04;101663.72;5075575;28;19912;-77
2023/02/03 02:41:19;;;;;;;;;;;;;;;3.89;70.10;101677.00;5067131;28;20392;-78
2023/02/03 02:44:11;;;;;;;;;;;;;;;4.49;68.69;101674.31;5067007;28;20372;-78
2023/02/03 02:47:05;;;;;;;;;;;;;;;4.63;68.12;101669.34;5062706;28;20376;-78
2023/02/03 02:50:04;;;;;;;;;;;;;;;4.75;68.09;101678.09;5078101;28;19912;-78
2023/02/03 02:52:58;;;;;;;;;;;;;;;4.84;67.37;101665.81;5069928;28;19916;-78
2023/02/03 02:55:50;;;;;;;;;;;;;;;4.95;67.20;101662.16;5073408;28;19913;-78
2023/02/03 02:58:45;;;;;;;;;;;;;;;5.00;67.08;101659.50;5072155;28;19913;-78
2023/02/03 03:01:35;;;;;;;;;;;;;;;4.81;66.40;101665.50;5071836;28;19916;-77
2023/02/03 03:04:27;;;;;;;;;;;;;;;4.88;67.16;101648.06;5071358;28;19912;-77
2023/02/03 03:07:23;;;;;;;;;;;;;;;5.00;65.54;101651.41;5072030;28;19912;-78
2023/02/03 03:10:17;;;;;;;;;;;;;;;4.63;67.18;101653.19;5073027;28;19912;-78
2023/02/03 03:13:11;;;;;;;;;;;;;;;4.43;67.64;101652.94;5074610;28;19916;-77
2023/02/03 03:16:06;;;;;;;;;;;;;;;4.45;67.30;101667.78;5072539;28;20374;-77
2023/02/03 03:18:57;;;;;;;;;;;;;;;4.70;66.79;101660.00;5070314;28;19924;-77
2023/02/03 03:21:57;;;;;;;;;;;;;;;4.70;68.29;101672.66;5055583;28;19913;-78
2023/02/03 03:24:53;;;;;;;;;;;;;;;4.76;68.45;101670.84;5074074;28;19912;-77
2023/02/03 03:27:47;;;;;;;;;;;;;;;5.00;67.95;101675.69;5075299;28;19939;-78
2023/02/03 03:30:38;;;;;;;;;;;;;;;5.03;67.10;101691.31;5079413;28;20293;-78
2023/02/03 03:33:29;;;;;;;;;;;;;;;4.91;65.98;101693.38;5081899;28;19916;-78
2023/02/03 03:36:48;;;;;;;;;;;;;;;4.93;65.39;101696.63;5079461;28;19913;-78
2023/02/03 03:39:55;;;;;;;;;;;;;;;4.71;64.31;101696.66;5073726;28;20288;-78
2023/02/03 03:42:49;;;;;;;;;;;;;;;3.74;67.59;101711.75;5079495;28;19912;-78
2023/02/03 03:45:48;;;;;;;;;;;;;;;3.52;68.89;101710.84;5070081;28;19916;-77
2023/02/03 03:48:51;;;;;;;;;;;;;;;3.19;70.80;101717.81;5072834;28;19916;-78
2023/02/03 03:51:57;;;;;;;;;;;;;;;3.51;70.64;101719.94;5077459;28;19916;-78
2023/02/03 03:54:45;;;;;;;;;;;;;;;3.69;70.21;101717.03;5075369;28;19916;-77
2023/02/03 03:57:38;;;;;;;;;;;;;;;3.18;71.69;101718.88;5075196;28;19912;-78
2023/02/03 04:00:28;;;;;;;;;;;;;;;3.25;72.06;101724.09;5076484;28;19912;-77
2023/02/03 04:03:38;;;;;;;;;;;;;;;3.12;73.22;101722.50;5079891;28;20288;-77
2023/02/03 04:06:28;;;;;;;;;;;;;;;3.10;73.06;101724.63;5071716;28;19912;-77
2023/02/03 04:09:17;;;;;;;;;;;;;;;3.23;71.89;101721.66;5072266;28;19912;-77
2023/02/03 04:12:14;;;;;;;;;;;;;;;3.43;71.24;101727.38;5078021;28;20312;-77
2023/02/03 04:15:06;;;;;;;;;;;;;;;3.43;71.43;101723.88;5076260;28;19912;-77
2023/02/03 04:17:55;;;;;;;;;;;;;;;3.69;70.74;101738.56;5079846;28;19913;-77
2023/02/03 04:20:47;;;;;;;;;;;;;;;3.42;71.34;101733.81;5077746;28;20351;-76
2023/02/03 04:23:39;;;;;;;;;;;;;;;3.38;71.20;101729.97;5075009;28;19912;-76
2023/02/03 04:26:31;;;;;;;;;;;;;;;3.61;70.57;101730.88;5073581;28;20380;-76
2023/02/03 04:29:23;;;;;;;;;;;;;;;3.88;69.89;101724.63;5074559;28;19938;-77
2023/02/03 04:32:15;;;;;;;;;;;;;;;3.92;69.52;101719.53;5079765;28;19920;-79
2023/02/03 04:35:07;;;;;;;;;;;;;;;4.16;69.19;101714.81;5077986;28;19912;-78
2023/02/03 04:37:59;;;;;;;;;;;;;;;4.28;68.58;101702.03;5069810;28;19912;-77
2023/02/03 04:40:51;;;;;;;;;;;;;;;4.29;68.76;101687.50;5068331;28;20373;-78
2023/02/03 04:43:43;;;;;;;;;;;;;;;4.19;66.52;101672.03;5076165;28;19912;-77
2023/02/03 04:46:35;;;;;;;;;;;;;;;4.03;67.20;101664.81;5068062;28;19912;-77
2023/02/03 04:49:24;;;;;;;;;;;;;;;3.96;68.55;101672.28;5076797;28;19912;-77
2023/02/03 04:52:16;;;;;;;;;;;;;;;3.86;68.42;101688.25;5075107;28;19916;-77
2023/02/03 04:55:08;;;;;;;;;;;;;;;3.82;69.20;101690.63;5074091;28;20285;-77
2023/02/03 04:58:01;;;;;;;;;;;;;;;3.96;67.87;101695.66;5077988;28;20300;-78
2023/02/03 05:00:52;;;;;;;;;;;;;;;4.02;67.30;101706.25;5075905;28;19912;-77
2023/02/03 05:03:42;;;;;;;;;;;;;;;4.04;68.55;101708.69;5078960;28;20373;-77
2023/02/03 05:06:34;;;;;;;;;;;;;;;3.97;68.42;101710.72;5072711;28;19942;-77
2023/02/03 05:09:26;;;;;;;;;;;;;;;3.63;69.81;101710.75;5073089;28;19912;-77
2023/02/03 05:12:18;;;;;;;;;;;;;;;4.00;69.04;101724.53;5078375;28;20381;-77
2023/02/03 05:15:10;;;;;;;;;;;;;;;3.60;68.53;101718.50;5075599;28;19912;-76
2023/02/03 05:18:02;;;;;;;;;;;;;;;3.24;70.75;101717.09;5073691;28;19912;-78
2023/02/03 05:20:54;;;;;;;;;;;;;;;2.95;70.64;101706.34;5077258;28;19913;-77
2023/02/03 05:23:46;;;;;;;;;;;;;;;3.29;70.13;101704.56;5074996;28;19916;-77
2023/02/03 05:26:37;;;;;;;;;;;;;;;3.24;69.63;101704.47;5071591;28;19912;-78
2023/02/03 05:29:29;;;;;;;;;;;;;;;3.21;70.54;101706.81;5075437;28;19913;-77
2023/02/03 05:32:21;;;;;;;;;;;;;;;3.18;70.75;101705.44;5074245;28;19916;-77
2023/02/03 05:35:13;;;;;;;;;;;;;;;3.10;72.26;101705.00;5077566;28;19913;-78
2023/02/03 05:38:05;;;;;;;;;;;;;;;3.60;70.66;101715.81;5076236;28;19912;-77
2023/02/03 05:44:03;;;;;;;;;;;;;;;4.01;69.59;101725.34;5075349;28;19912;-76
2023/02/03 05:46:55;;;;;;;;;;;;;;;3.96;69.41;101715.31;5063606;28;19912;-76
2023/02/03 05:49:47;;;;;;;;;;;;;;;3.64;70.10;101727.72;5074117;28;19912;-76
2023/02/03 05:52:39;;;;;;;;;;;;;;;4.09;68.35;101733.81;5066732;28;19920;-76
2023/02/03 05:55:29;;;;;;;;;;;;;;;3.98;67.74;101723.94;5069756;28;19912;-76
2023/02/03 05:58:20;;;;;;;;;;;;;;;3.63;69.01;101728.78;5076605;28;19912;-76
2023/02/03 06:01:10;;;;;;;;;;;;;;;3.49;68.31;101744.41;5074732;28;20289;-76
2023/02/03 06:04:02;;;;;;;;;;;;;;;2.68;72.78;101747.44;5077882;28;19912;-76
2023/02/03 06:06:52;;;;;;;;;;;;;;;3.37;70.36;101739.09;5074810;28;20381;-76
2023/02/03 06:09:44;;;;;;;;;;;;;;;3.72;68.52;101738.88;5069024;28;19912;-76
2023/02/03 06:12:36;;;;;;;;;;;;;;;3.65;69.68;101743.63;5076928;28;19916;-75
2023/02/03 06:15:28;;;;;;;;;;;;;;;3.62;67.93;101738.72;5071932;28;19912;-76
2023/02/03 06:18:21;;;;;;;;;;;;;;;3.27;68.46;101730.03;5072813;28;20380;-77
2023/02/03 06:21:13;;;;;;;;;;;;;;;3.14;68.31;101724.97;5074648;28;19912;-77
2023/02/03 06:24:05;;;;;;;;;;;;;;;2.75;69.38;101716.69;5072779;28;19913;-76
2023/02/03 06:26:57;;;;;;;;;;;;;;;2.71;69.67;101730.84;5068791;28;20308;-76
2023/02/03 06:29:49;;;;;;;;;;;;;;;2.91;68.68;101744.66;5071834;28;19935;-76
2023/02/03 06:32:41;;;;;;;;;;;;;;;2.33;69.98;101756.38;5068966;28;19916;-76
2023/02/03 06:35:33;;;;;;;;;;;;;;;2.86;69.34;101769.56;5077445;28;19967;-77
2023/02/03 06:38:25;;;;;;;;;;;;;;;2.89;69.59;101779.03;5073050;28;19912;-76
2023/02/03 06:41:17;;;;;;;;;;;;;;;3.06;69.35;101774.53;5070022;28;20368;-76
2023/02/03 06:44:09;;;;;;;;;;;;;;;3.43;68.94;101756.94;5065897;28;20385;-76
2023/02/03 06:47:01;;;;;;;;;;;;;;;3.73;68.26;101771.97;5069984;28;19912;-76
2023/02/03 06:49:51;;;;;;;;;;;;;;;4.02;67.66;101781.59;5076375;28;19912;-76
2023/02/03 06:52:43;;;;;;;;;;;;;;;3.88;68.47;101788.38;5079710;28;20381;-76
2023/02/03 06:55:33;;;;;;;;;;;;;;;4.42;66.63;101812.91;5077225;28;19913;-76
2023/02/03 06:58:24;;;;;;;;;;;;;;;4.50;65.44;101836.72;5081208;28;19913;-76
2023/02/03 07:01:16;;;;;;;;;;;;;;;4.47;64.70;101834.53;5082672;28;19912;-76
2023/02/03 07:04:09;;;;;;;;;;;;;;;4.66;63.86;101827.78;5076758;28;19912;-76
2023/02/03 07:07:02;;;;;;;;;;;;;;;4.61;65.80;101816.94;5058442;28;20536;-76
2023/02/03 07:09:51;;;;;;;;;;;;;;;4.49;66.84;101821.59;5059999;28;19913;-76
2023/02/03 07:12:43;;;;;;;;;;;;;;;4.23;68.50;101842.75;5070494;28;19917;-77
2023/02/03 07:15:35;;;;;;;;;;;;;;;4.51;66.58;101841.03;5074725;28;19913;-77
2023/02/03 07:18:25;;;;;;;;;;;;;;;4.19;67.24;101847.00;5080921;28;19912;-79
2023/02/03 07:21:18;;;;;;;;;;;;;;;4.37;67.76;101842.44;5082942;28;20284;-77
2023/02/03 07:24:10;;;;;;;;;;;;;;;4.58;67.92;101828.19;5078759;28;19912;-76
2023/02/03 07:27:02;;;;;;;;;;;;;;;4.74;68.61;101830.03;5082416;28;19912;-79
2023/02/03 07:29:54;;;;;;;;;;;;;;;4.96;68.58;101841.66;5080181;28;19913;-76
2023/02/03 07:32:48;;;;;;;;;;;;;;;5.05;67.77;101829.38;5074563;28;19916;-76
2023/02/03 07:35:40;;;;;;;;;;;;;;;5.17;68.69;101853.53;5075182;28;19916;-76
2023/02/03 07:38:32;;;;;;;;;;;;;;;5.15;68.94;101851.06;5077795;28;19920;-76
2023/02/03 07:41:24;;;;;;;;;;;;;;;5.20;69.53;101862.97;5076677;28;19912;-76
2023/02/03 07:44:13;;;;;;;;;;;;;;;5.11;69.89;101866.13;5080399;28;19912;-76
2023/02/03 07:47:03;;;;;;;;;;;;;;;5.21;69.69;101861.91;5075929;28;19912;-76
2023/02/03 07:49:55;;;;;;;;;;;;;;;4.91;72.24;101868.53;5074915;28;19912;-76
2023/02/03 07:52:47;;;;;;;;;;;;;;;4.98;72.51;101869.16;5074302;28;19916;-76
2023/02/03 07:55:39;;;;;;;;;;;;;;;4.62;75.05;101869.75;5069191;28;19912;-76
2023/02/03 07:58:31;;;;;;;;;;;;;;;4.96;74.90;101871.31;5074498;28;19916;-76
2023/02/03 08:01:20;;;;;;;;;;;;;;;4.96;75.38;101854.31;5078542;28;19912;-75
2023/02/03 08:04:10;;;;;;;;;;;;;;;4.82;76.96;101858.44;5072035;28;19912;-76
2023/02/03 08:06:59;;;;;;;;;;;;;;;4.79;76.02;101867.00;5077123;28;19916;-76
2023/02/03 08:09:49;;;;;;;;;;;;;;;5.23;75.85;101857.91;5078278;28;19913;-76
2023/02/03 08:12:38;;;;;;;;;;;;;;;5.47;74.47;101856.56;5070314;28;19916;-77
2023/02/03 08:15:30;;;;;;;;;;;;;;;5.70;73.82;101851.94;5079510;28;19912;-76
2023/02/03 08:18:22;;;;;;;;;;;;;;;5.68;73.94;101852.22;5077675;28;20381;-76
2023/02/03 08:21:14;;;;;;;;;;;;;;;5.67;73.79;101842.47;5074898;28;19913;-77
2023/02/03 08:24:06;;;;;;;;;;;;;;;5.31;75.14;101846.66;5078869;28;19913;-75
2023/02/03 08:26:58;;;;;;;;;;;;;;;4.95;76.70;101858.91;5076848;28;19912;-76
2023/02/03 08:29:50;;;;;;;;;;;;;;;4.98;77.83;101854.88;5080676;28;19916;-77
2023/02/03 08:32:42;;;;;;;;;;;;;;;5.24;77.53;101856.81;5068159;28;19916;-76
2023/02/03 08:35:35;;;;;;;;;;;;;;;5.71;74.87;101853.56;5075169;28;19912;-76
2023/02/03 08:38:27;;;;;;;;;;;;;;;5.87;74.34;101853.50;5079462;28;19927;-76
2023/02/03 08:41:19;;;;;;;;;;;;;;;5.68;74.54;101836.00;5076933;28;19912;-77
2023/02/03 08:44:06;;;;;;;;;;;;;;;6.08;72.73;101834.78;5072912;28;20308;-75
2023/02/03 08:46:59;;;;;;;;;;;;;;;5.75;73.65;101831.22;5072540;28;20381;-76
2023/02/03 08:49:48;;;;;;;;;;;;;;;5.74;72.03;101832.28;5069204;28;19912;-76
2023/02/03 08:52:40;;;;;;;;;;;;;;;5.89;72.78;101843.25;5060978;28;20377;-77
2023/02/03 08:55:32;;;;;;;;;;;;;;;5.76;73.39;101840.13;5077244;28;19912;-76
2023/02/03 08:58:24;;;;;;;;;;;;;;;6.01;73.75;101849.31;5076298;28;19913;-77
2023/02/03 09:01:15;;;;;;;;;;;;;;;6.37;72.35;101846.88;5079185;28;19924;-78
2023/02/03 09:04:07;;;;;;;;;;;;;;;6.39;72.57;101852.84;5076851;28;20393;-78
2023/02/03 09:06:59;;;;;;;;;;;;;;;6.00;74.35;101863.88;5074634;28;19912;-78
2023/02/03 09:09:50;;;;;;;;;;;;;;;6.04;72.50;101860.66;5078282;28;19912;-79
2023/02/03 09:12:42;;;;;;;;;;;;;;;6.03;74.72;101869.84;5076652;28;19916;-79
2023/02/03 09:15:32;;;;;;;;;;;;;;;6.63;71.79;101851.38;5074034;28;19912;-77
2023/02/03 09:18:24;;;;;;;;;;;;;;;6.91;70.62;101852.09;5076922;28;20360;-78
2023/02/03 09:21:15;;;;;;;;;;;;;;;7.07;69.86;101842.94;5074899;28;19912;-78
2023/02/03 09:24:07;;;;;;;;;;;;;;;7.37;69.37;101837.66;5078883;28;19912;-78
2023/02/03 09:26:59;;;;;;;;;;;;;;;7.64;68.05;101851.81;5070166;28;19917;-81
2023/02/03 09:29:44;;;;;;;;;;;;;;;7.57;68.54;101872.91;5073366;28;19912;-81
2023/02/03 09:32:36;;;;;;;;;;;;;;;7.60;68.11;101883.22;5080184;28;19916;-80
2023/02/03 09:35:28;;;;;;;;;;;;;;;7.47;69.71;101886.41;5078253;28;19912;-83
2023/02/03 09:38:20;;;;;;;;;;;;;;;5.82;76.32;101896.59;5070850;28;19916;-80
2023/02/03 09:41:15;;;;;;;;;;;;;;;6.72;75.96;101892.25;5077297;28;20384;-80
2023/02/03 09:44:17;;;;;;;;;;;;;;;6.16;76.44;101899.91;5067375;28;19913;-79
2023/02/03 09:47:12;;;;;;;;;;;;;;;6.56;75.38;101899.44;5069690;28;19912;-79
2023/02/03 09:50:06;;;;;;;;;;;;;;;6.15;75.39;101878.56;5071729;28;19912;-80
2023/02/03 09:53:00;;;;;;;;;;;;;;;5.94;77.38;101875.69;5069873;28;19916;-79
2023/02/03 09:55:52;;;;;;;;;;;;;;;6.43;76.84;101870.97;5064584;28;19912;-79
2023/02/03 09:58:44;;;;;;;;;;;;;;;6.99;73.52;101863.22;5063834;28;19916;-79
2023/02/03 10:01:43;;;;;;;;;;;;;;;7.37;72.45;101866.59;5067737;28;19920;-79
2023/02/03 10:04:38;;;;;;;;;;;;;;;7.60;71.14;101883.22;5075212;28;19912;-79
2023/02/03 10:07:47;;;;;;;;;;;;;;;7.86;69.65;101872.44;5073818;28;20399;-78
2023/02/03 10:10:37;;;;;;;;;;;;;;;8.00;68.80;101868.94;5076972;28;19924;-78
2023/02/03 10:13:36;;;;;;;;;;;;;;;7.93;68.70;101864.84;5066942;28;19927;-79
2023/02/03 10:16:37;;;;;;;;;;;;;;;7.04;73.61;101865.94;5076632;28;19912;-79
2023/02/03 10:19:38;;;;;;;;;;;;;;;7.33;72.11;101860.91;5071230;28;19913;-81
2023/02/03 10:22:31;;;;;;;;;;;;;;;7.62;71.58;101870.19;5077437;28;19916;-80
2023/02/03 10:25:26;;;;;;;148.17;50.70;;;;;;;8.19;71.08;101869.19;5070427;28;20366;-82
2023/02/03 10:28:26;;;;;;;141.18;63.70;;;;;;;8.77;67.27;101881.38;5078255;28;20041;-85
2023/02/03 10:31:23;;;;;;;138.60;63.75;;;;;;;8.54;69.06;101876.53;5080843;28;20040;-84
2023/02/03 10:34:18;;;;;;;121.72;62.08;;;;;;;9.18;66.36;101873.94;5083596;28;20033;-85
2023/02/03 10:37:35;;;;;;;92.97;45.50;;;;;;;9.16;65.81;101870.69;5079011;28;20037;-86
2023/02/03 10:40:30;;;;;;;134.07;60.72;;;;;;;7.97;68.46;101871.38;5073602;28;20044;-85
2023/02/03 10:46:32;;;;;;;132.55;66.75;;;;;;;7.26;70.73;101855.75;5074604;28;20045;-78
2023/02/03 10:49:30;;;;;;;113.28;57.65;;;;;;;6.79;73.14;101839.59;5071887;28;20045;-79
2023/02/03 10:52:35;;;;;;;140.25;69.18;;;;;;;6.52;74.67;101830.78;5074396;28;20497;-77
2023/02/03 10:55:35;;;;;;;63.00;31.48;;;;;;;6.60;74.85;101824.91;5071659;28;20410;-79
2023/02/03 10:58:32;;;;;;;135.32;67.07;;;;;;;6.62;75.55;101816.50;5075981;28;20047;-79
2023/02/03 11:01:24;;;;;;;146.27;69.10;;;;;;;6.58;75.73;101802.72;5069619;28;20041;-80
2023/02/03 11:04:46;;;;;;;132.23;59.10;;;;;;;6.79;74.18;101801.75;5075847;28;20397;-78
2023/02/03 11:07:38;;;;;;;167.23;77.55;;;;;;;6.75;75.24;101800.66;5063552;28;20037;-78
2023/02/03 11:10:39;;;;;;;165.32;76.10;;;;;;;6.89;75.19;101809.09;5076284;28;20048;-79
2023/02/03 11:13:29;;;;;;;161.90;74.18;;;;;;;6.99;74.74;101811.03;5073999;28;20040;-78
2023/02/03 11:16:24;;;;;;;165.25;77.78;;;;;;;7.07;74.56;101813.22;5071183;28;20420;-78
2023/02/03 11:19:23;;;;;;;121.60;58.78;;;;;;;7.01;75.22;101814.28;5070955;28;20040;-78
2023/02/03 11:22:27;;;;;;;150.23;69.82;;;;;;;6.99;75.30;101792.09;5071378;28;20493;-77
2023/02/03 11:25:25;;;;;;;155.63;78.30;;;;;;;7.03;74.70;101785.06;5075556;28;20036;-77
2023/02/03 11:28:20;;;;;;;142.82;68.65;;;;;;;7.24;74.44;101775.94;5073099;28;20040;-77
2023/02/03 11:31:21;;;;;;;140.57;67.60;;;;;;;7.39;72.86;101783.28;5076613;28;20405;-78
2023/02/03 11:34:23;;;;;;;139.73;64.20;;;;;;;7.59;73.16;101767.88;5076747;28;20501;-78
2023/02/03 11:37:33;;;;;;;138.85;68.40;;;;;;;7.66;72.14;101764.94;5074688;28;20040;-78
2023/02/03 11:40:38;;;;;;;136.70;68.50;;;;;;;7.75;71.59;101763.31;5072760;28;20486;-78
2023/02/03 11:43:33;;;;;;;100.33;50.80;;;;;;;7.83;71.11;101756.53;5072629;28;20599;-77
2023/02/03 11:46:28;;;;;;;141.68;67.65;;;;;;;7.91;71.74;101754.09;5078031;28;20271;-78
2023/02/03 11:49:46;;;;;;;100.97;51.20;;;;;;;8.03;70.43;101740.25;5070960;28;20040;-78
2023/02/03 11:53:01;;;;;;;124.18;62.83;;;;;;;8.18;69.37;101731.31;5062115;28;20033;-78
2023/02/03 11:56:03;;;;;;;145.80;68.30;;;;;;;8.20;70.05;101727.25;5065981;28;20048;-79
2023/02/03 11:59:10;;;;;;;133.50;66.13;;;;;;;8.31;70.64;101711.81;5074803;28;20424;-80
2023/02/03 12:02:30;;;;;;;134.85;65.55;;;;;;;8.62;68.37;101712.50;5061372;28;20053;-78
2023/02/03 12:06:03;;;;;;;119.90;62.03;;;;;;;8.59;67.77;101705.72;5069005;28;20037;-79
2023/02/03 12:09:03;;;;;;;129.45;65.00;;;;;;;8.94;66.83;101696.59;5073885;28;20424;-78
2023/02/03 12:12:19;;;;;;;133.10;65.60;;;;;;;8.86;66.66;101689.88;5067327;28;20032;-79
2023/02/03 12:15:54;;;;;;;95.65;48.90;;;;;;;9.02;66.74;101690.59;5046898;28;20044;-78
2023/02/03 12:18:56;;;;;;;125.82;62.35;;;;;;;9.11;66.76;101675.34;5047463;28;20048;-78
2023/02/03 12:21:57;;;;;;;140.40;64.65;;;;;;;9.13;66.21;101662.31;5064141;28;20040;-78
2023/02/03 12:25:07;;;;;;;135.27;66.40;;;;;;;9.22;66.66;101652.47;5067267;28;20477;-78
2023/02/03 12:28:15;;;;;;;132.48;66.35;;;;;;;9.37;66.41;101651.53;5072593;28;20032;-77
2023/02/03 12:31:29;;;;;;;130.10;64.10;;;;;;;9.30;66.55;101645.63;5081830;28;20047;-78
2023/02/03 12:34:40;;;;;;;123.85;63.72;;;;;;;9.35;65.93;101637.44;5097757;28;20044;-77
2023/02/03 12:37:47;;;;;;;137.05;64.03;;;;;;;9.36;65.72;101628.19;5063642;28;20044;-77
2023/02/03 12:41:10;;;;;;;125.63;61.90;;;;;;;9.50;65.76;101617.50;5069029;28;20481;-79
2023/02/03 12:44:07;;;;;;;99.67;49.17;;;;;;;9.67;65.13;101602.41;5054969;28;20405;-79
2023/02/03 12:47:14;;;;;;;128.57;63.30;;;;;;;9.63;64.83;101600.53;5074640;28;20289;-78
2023/02/03 12:50:21;;;;;;;126.57;64.53;;;;;;;9.65;65.08;101604.56;5053362;28;20037;-79
2023/02/03 12:53:20;;;;;;;143.25;67.88;;;;;;;9.66;64.24;101589.09;5056304;28;20045;-78
2023/02/03 12:56:18;;;;;;;136.45;64.82;;;;;;;9.67;64.67;101588.81;5054136;28;20041;-78
2023/02/03 12:59:16;;;;;;;131.07;63.28;;;;;;;9.58;64.96;101582.41;5057382;28;20045;-78
2023/02/03 13:02:19;;;;;;;134.18;62.38;;;;;;;9.78;64.81;101576.75;5054849;28;20041;-78
2023/02/03 13:05:20;;;;;;;128.40;60.85;;;;;;;9.85;64.17;101579.13;5065601;28;20037;-79
2023/02/03 13:08:45;;;;;;;129.85;63.30;;;;;;;9.91;64.08;101552.69;5067540;28;20424;-79
2023/02/03 13:12:22;;;;;;;135.35;63.40;;;;;;;10.05;63.49;101545.47;5076723;28;20028;-78
2023/02/03 13:15:30;;;;;;;128.90;61.85;;;;;;;10.07;63.49;101549.50;5068696;28;20044;-79
2023/02/03 13:18:28;;;;;;;125.63;63.10;;;;;;;9.98;63.54;101539.56;5075803;28;20036;-77
2023/02/03 13:21:22;;;;;;;124.90;60.38;;;;;;;9.96;63.74;101531.72;5073150;28;20044;-78
2023/02/03 13:24:14;;;;;;;123.72;61.38;;;;;;;10.08;63.60;101536.72;5058838;28;20041;-78
2023/02/03 13:27:26;;;;;;;125.65;58.97;;;;;;;10.04;63.56;101530.25;5067106;28;20044;-77
2023/02/03 13:30:27;;;;;;;122.60;60.00;;;;;;;10.14;62.66;101530.13;5066167;28;20032;-77
2023/02/03 13:33:38;;;;;;;132.35;59.72;;;;;;;10.12;63.06;101519.53;5074102;28;20041;-77
2023/02/03 13:36:41;;;;;;;117.25;61.28;;;;;;;10.17;62.59;101519.50;5072471;28;20041;-77
2023/02/03 13:39:46;;;;;;;115.20;62.35;;;;;;;10.37;62.26;101514.88;5074301;28;20036;-77
2023/02/03 13:42:44;;;;;;;126.90;60.90;;;;;;;10.34;62.10;101512.75;5077166;28;20036;-78
2023/02/03 13:45:42;;;;;;;121.35;60.30;;;;;;;10.48;61.74;101519.88;5069675;28;20505;-77
2023/02/03 13:48:36;;;;;;;117.38;59.13;;;;;;;10.45;61.63;101516.94;5077678;28;20497;-77
2023/02/03 13:51:44;;;;;;;121.30;59.67;;;;;;;10.58;61.41;101514.28;5075924;28;20044;-77
2023/02/03 13:54:46;;;;;;;119.68;58.05;;;;;;;10.59;61.24;101509.66;5078684;28;20283;-77
2023/02/03 13:57:38;;;;;;;122.50;61.45;;;;;;;10.67;61.04;101500.81;5072272;28;20041;-77
2023/02/03 14:00:55;;;;;;;111.78;59.25;;;;;;;10.79;60.09;101503.09;5073770;28;20036;-77
2023/02/03 14:03:48;;;;;;;115.38;59.08;;;;;;;10.80;60.51;101502.00;5076137;28;20401;-77
2023/02/03 14:06:43;;;;;;;121.55;62.67;;;;;;;10.91;60.12;101496.09;5068897;28;20033;-78
2023/02/03 14:09:33;;;;;;;;;;;;;;;10.78;60.21;101493.31;5077871;28;20029;-77
2023/02/03 14:12:38;;;;;;;124.38;61.28;;;;;;;10.84;59.92;101487.50;5075013;28;19912;-77
2023/02/03 14:15:35;;;;;;;115.43;59.22;;;;;;;10.90;60.50;101489.03;5072216;28;20048;-77
2023/02/03 14:18:43;;;;;;;117.20;58.15;;;;;;;10.73;61.21;101488.75;5075888;28;20036;-77
2023/02/03 14:21:49;;;;;;;119.43;56.30;;;;;;;10.69;61.62;101477.69;5072417;28;20044;-77
2023/02/03 14:24:45;;;;;;;118.97;58.20;;;;;;;10.65;61.99;101492.16;5075585;28;20036;-77
2023/02/03 14:27:39;;;;;;;122.18;60.83;;;;;;;10.73;62.39;101486.84;5067261;28;20278;-78
2023/02/03 14:30:31;;;;;;;;;;;;;;;10.75;62.49;101500.16;5077475;28;20041;-79
2023/02/03 14:33:24;;;;;;;;;;;;;;;10.60;63.32;101497.69;5076871;28;20399;-80
2023/02/03 14:36:33;;;;;;;;;;;;;;;10.50;63.38;101481.53;5074586;28;20379;-80
2023/02/03 14:39:42;;;;;;;;;;;;;;;10.42;63.91;101487.63;5078185;28;19912;-80
2023/02/03 14:42:52;;;;;;;;;;;;;;;10.28;64.23;101487.56;5074481;28;19912;-80
2023/02/03 14:46:03;;;;;;;;;;;;;;;10.32;64.54;101491.28;5077700;28;19912;-80
2023/02/03 14:49:02;;;;;;;;;;;;;;;10.11;65.24;101482.59;5070070;28;19912;-80